Time;durP1;ratioP1;P1;durP2;ratioP2;P2;SDS_P1;SDS_P2;PMS_P1;PMS_P2;Temp;Humidity;BMP_temperature;BMP_pressure;BME280_temperature;BME280_humidity;BME280_pressure;Samples;Min_cycle;Max_cycle;Signal;HPM_P1;HPM_P2
2021/04/15 00:00:56;;;;;;;5.93;4.23;;;5.60;99.90;;;;;;5086705;28;20471;-78
2021/04/15 00:03:25;;;;;;;4.93;4.10;;;5.60;99.90;;;;;;5062512;28;20519;-78
2021/04/15 00:05:52;;;;;;;9.70;4.97;;;5.50;99.90;;;;;;5077760;28;20496;-78
2021/04/15 00:08:19;;;;;;;6.10;4.80;;;5.60;99.90;;;;;;5070088;28;20447;-77
2021/04/15 00:10:50;;;;;;;6.67;5.17;;;5.60;99.90;;;;;;5076724;28;20798;-78
2021/04/15 00:13:20;;;;;;;4.90;4.47;;;5.60;99.90;;;;;;5071033;28;20401;-77
2021/04/15 00:15:46;;;;;;;11.13;5.40;;;5.50;99.90;;;;;;5072022;28;20453;-78
2021/04/15 00:18:12;;;;;;;5.87;5.27;;;5.50;99.90;;;;;;5079788;28;20489;-78
2021/04/15 00:20:38;;;;;;;7.90;5.00;;;5.50;99.90;;;;;;5089804;28;20191;-78
2021/04/15 00:23:03;;;;;;;13.40;5.10;;;5.50;99.90;;;;;;5073709;28;20429;-77
2021/04/15 00:25:29;;;;;;;6.60;5.40;;;5.40;99.90;;;;;;5084015;28;20189;-78
2021/04/15 00:27:55;;;;;;;8.23;6.30;;;5.40;99.90;;;;;;5084823;28;20189;-75
2021/04/15 00:30:21;;;;;;;6.43;5.73;;;5.30;99.90;;;;;;5095456;28;20478;-78
2021/04/15 00:32:47;;;;;;;6.40;5.20;;;5.30;99.90;;;;;;5083310;28;20189;-77
2021/04/15 00:35:13;;;;;;;7.77;5.27;;;5.30;99.90;;;;;;5084763;28;20426;-78
2021/04/15 00:37:39;;;;;;;9.30;6.30;;;5.30;99.90;;;;;;5072871;28;20186;-78
2021/04/15 00:40:08;;;;;;;7.40;6.17;;;5.20;99.90;;;;;;5088689;28;20455;-78
2021/04/15 00:42:36;;;;;;;6.20;5.37;;;5.20;99.90;;;;;;5077648;28;20201;-77
2021/04/15 00:45:10;;;;;;;6.47;5.80;;;5.30;99.90;;;;;;5077152;28;20909;-78
2021/04/15 00:47:37;;;;;;;7.13;6.40;;;5.20;99.90;;;;;;5076898;28;20971;-78
2021/04/15 00:50:15;;;;;;;7.40;6.70;;;5.20;99.90;;;;;;5097150;28;20454;-79
2021/04/15 00:52:48;;;;;;;7.60;5.73;;;5.10;99.90;;;;;;5087793;28;20451;-78
2021/04/15 00:55:19;;;;;;;6.80;6.10;;;5.10;99.90;;;;;;5076715;28;20421;-78
2021/04/15 00:57:48;;;;;;;10.13;7.07;;;5.10;99.90;;;;;;5089668;28;20435;-78
2021/04/15 01:00:17;;;;;;;7.30;6.60;;;5.10;99.90;;;;;;5094163;28;20943;-78
2021/04/15 01:02:43;;;;;;;7.87;6.23;;;5.00;99.90;;;;;;5096524;28;20463;-77
2021/04/15 01:05:20;;;;;;;7.00;6.30;;;4.90;99.90;;;;;;5097570;28;20837;-78
2021/04/15 01:07:45;;;;;;;8.20;7.20;;;4.90;99.90;;;;;;5092043;28;20827;-77
2021/04/15 01:10:12;;;;;;;17.63;7.60;;;4.90;99.90;;;;;;5094822;28;20461;-78
2021/04/15 01:12:51;;;;;;;10.23;7.43;;;4.90;99.90;;;;;;5097622;28;20197;-76
2021/04/15 01:15:48;;;;;;;8.90;7.50;;;4.80;99.90;;;;;;5054354;28;20408;-78
2021/04/15 01:18:25;;;;;;;7.93;6.30;;;4.80;99.90;;;;;;5079543;28;20420;-78
2021/04/15 01:20:56;;;;;;;8.10;6.90;;;4.70;99.90;;;;;;5075682;28;20987;-77
2021/04/15 01:23:46;;;;;;;8.60;6.70;;;4.70;99.90;;;;;;5082537;28;20418;-78
2021/04/15 01:26:42;;;;;;;8.53;7.20;;;4.60;99.90;;;;;;5083132;28;20415;-78
2021/04/15 01:29:12;;;;;;;12.90;8.70;;;4.60;99.90;;;;;;5081124;28;20440;-77
2021/04/15 01:31:44;;;;;;;9.47;8.00;;;4.60;99.90;;;;;;5096538;28;20465;-75
2021/04/15 01:34:49;;;;;;;8.53;7.20;;;4.50;99.90;;;;;;5094933;28;20521;-78
2021/04/15 01:37:27;;;;;;;11.20;8.80;;;4.50;99.90;;;;;;5067329;28;21088;-77
2021/04/15 01:40:18;;;;;;;9.67;7.93;;;4.40;99.90;;;;;;5083616;28;20418;-78
2021/04/15 01:43:15;;;;;;;12.37;8.30;;;4.50;99.90;;;;;;5069247;28;20463;-76
2021/04/15 01:45:46;;;;;;;12.33;9.50;;;4.40;99.90;;;;;;5084729;28;20514;-78
2021/04/15 01:48:17;;;;;;;10.80;8.80;;;4.30;99.90;;;;;;5095074;28;20426;-78
2021/04/15 01:50:53;;;;;;;12.20;9.43;;;4.30;99.90;;;;;;5097613;28;20457;-78
2021/04/15 01:53:24;;;;;;;11.90;9.90;;;4.40;99.90;;;;;;5072124;28;20444;-77
2021/04/15 01:55:58;;;;;;;14.70;9.40;;;4.30;99.90;;;;;;5070259;28;20463;-77
2021/04/15 01:59:19;;;;;;;11.60;10.13;;;4.30;99.90;;;;;;5067613;28;20940;-77
2021/04/15 02:01:49;;;;;;;16.00;9.90;;;4.40;99.90;;;;;;5040008;28;20452;-77
2021/04/15 02:04:32;;;;;;;13.27;10.70;;;4.30;99.90;;;;;;5083864;28;20836;-77
2021/04/15 02:07:08;;;;;;;12.00;9.77;;;4.20;99.90;;;;;;5074684;28;20395;-77
2021/04/15 02:09:37;;;;;;;16.47;12.10;;;4.20;99.90;;;;;;5071161;28;20405;-77
2021/04/15 02:12:12;;;;;;;14.27;10.60;;;4.20;99.90;;;;;;5074681;28;20816;-77
2021/04/15 02:14:40;;;;;;;14.97;9.50;;;4.10;99.90;;;;;;5065154;28;20797;-76
2021/04/15 02:17:09;;;;;;;13.37;9.97;;;4.00;99.90;;;;;;5085705;28;20420;-76
2021/04/15 02:19:47;;;;;;;12.63;9.87;;;3.90;99.90;;;;;;5075621;28;20432;-78
2021/04/15 02:22:34;;;;;;;18.67;9.60;;;3.90;99.90;;;;;;5082627;28;20455;-78
2021/04/15 02:25:08;;;;;;;13.23;10.83;;;3.80;99.90;;;;;;5079368;28;20422;-78
2021/04/15 02:27:52;;;;;;;16.30;11.53;;;3.80;99.90;;;;;;5075083;28;20543;-78
2021/04/15 02:30:21;;;;;;;16.37;10.70;;;3.80;99.90;;;;;;5075502;28;20470;-77
2021/04/15 02:33:17;;;;;;;11.43;10.30;;;3.80;99.90;;;;;;5075745;28;20436;-77
2021/04/15 02:35:54;;;;;;;11.70;10.50;;;3.80;99.90;;;;;;5071183;28;20416;-78
2021/04/15 02:38:28;;;;;;;13.70;10.07;;;3.80;99.90;;;;;;5078740;28;20424;-78
2021/04/15 02:40:59;;;;;;;11.70;9.47;;;3.70;99.90;;;;;;5073857;28;20454;-77
2021/04/15 02:43:43;;;;;;;13.17;9.77;;;3.70;99.90;;;;;;5073992;28;20396;-77
2021/04/15 02:46:16;;;;;;;15.50;11.33;;;3.80;99.90;;;;;;5073937;28;20411;-77
2021/04/15 02:48:43;;;;;;;13.00;10.23;;;3.80;99.90;;;;;;5073850;28;20416;-77
2021/04/15 02:51:16;;;;;;;17.03;11.00;;;3.70;99.90;;;;;;5073517;28;21153;-78
2021/04/15 02:53:51;;;;;;;13.83;11.50;;;3.70;99.90;;;;;;5072538;28;20411;-77
2021/04/15 02:56:25;;;;;;;15.93;11.67;;;3.60;99.90;;;;;;5072980;28;20773;-77
2021/04/15 02:59:06;;;;;;;13.30;11.07;;;3.70;99.90;;;;;;5081786;28;20527;-77
2021/04/15 03:01:37;;;;;;;14.67;11.40;;;3.60;99.90;;;;;;5069277;28;20542;-77
2021/04/15 03:04:07;;;;;;;14.77;11.10;;;3.60;99.90;;;;;;5074870;28;20435;-77
2021/04/15 03:06:35;;;;;;;14.57;12.33;;;3.60;99.90;;;;;;5077680;28;20443;-77
2021/04/15 03:09:05;;;;;;;15.37;12.00;;;3.60;99.90;;;;;;5077960;28;20782;-78
2021/04/15 03:11:45;;;;;;;14.67;11.30;;;3.50;99.90;;;;;;5075559;28;20466;-77
2021/04/15 03:14:18;;;;;;;13.80;10.30;;;3.50;99.90;;;;;;5082570;28;20428;-78
2021/04/15 03:16:47;;;;;;;17.00;12.70;;;3.40;99.90;;;;;;5078166;28;20427;-76
2021/04/15 03:19:19;;;;;;;13.47;12.10;;;3.40;99.90;;;;;;5076505;28;20441;-74
2021/04/15 03:21:58;;;;;;;22.70;13.43;;;3.30;99.90;;;;;;5084969;28;20455;-78
2021/04/15 03:24:31;;;;;;;15.00;13.07;;;3.40;99.90;;;;;;5087156;28;20518;-78
2021/04/15 03:27:27;;;;;;;14.83;13.23;;;3.40;99.90;;;;;;5076138;28;20511;-78
2021/04/15 03:30:24;;;;;;;16.00;12.53;;;3.30;99.90;;;;;;5055917;28;20436;-77
2021/04/15 03:33:06;;;;;;;16.17;12.87;;;3.40;99.90;;;;;;5051684;28;20478;-77
2021/04/15 03:35:45;;;;;;;14.23;12.73;;;3.30;99.90;;;;;;5076118;28;20463;-78
2021/04/15 03:38:17;;;;;;;17.73;13.03;;;3.30;99.90;;;;;;5076470;28;20427;-77
2021/04/15 03:40:45;;;;;;;18.20;12.03;;;3.30;99.90;;;;;;5082693;28;20426;-77
2021/04/15 03:43:18;;;;;;;15.60;13.23;;;3.30;99.90;;;;;;5076918;28;20409;-77
2021/04/15 03:45:53;;;;;;;14.17;12.20;;;3.30;99.90;;;;;;5061239;28;20433;-78
2021/04/15 03:48:23;;;;;;;15.93;13.20;;;3.40;99.90;;;;;;5080148;28;20482;-77
2021/04/15 03:51:07;;;;;;;17.50;13.17;;;3.30;99.90;;;;;;5073031;28;20896;-77
2021/04/15 03:53:41;;;;;;;15.67;12.90;;;3.40;99.90;;;;;;5081139;28;20429;-77
2021/04/15 03:56:13;;;;;;;17.03;12.67;;;3.40;99.90;;;;;;5081388;28;20561;-78
2021/04/15 03:58:43;;;;;;;17.20;13.67;;;3.40;99.90;;;;;;5087499;28;20455;-78
2021/04/15 04:01:24;;;;;;;13.43;12.07;;;3.40;99.90;;;;;;5076098;28;20440;-77
2021/04/15 04:04:16;;;;;;;24.00;14.27;;;3.30;99.90;;;;;;5058811;28;20796;-78
2021/04/15 04:06:43;;;;;;;14.53;11.10;;;3.30;99.90;;;;;;5075285;28;20431;-78
2021/04/15 04:09:24;;;;;;;20.60;13.70;;;3.30;99.90;;;;;;5074097;28;20801;-78
2021/04/15 04:11:52;;;;;;;17.10;12.97;;;3.30;99.90;;;;;;5071102;28;20487;-77
2021/04/15 04:14:40;;;;;;;17.23;13.67;;;3.30;99.90;;;;;;5073961;28;20422;-78
2021/04/15 04:17:16;;;;;;;15.17;12.20;;;3.30;99.90;;;;;;5065713;28;20508;-77
2021/04/15 04:19:51;;;;;;;16.27;14.13;;;3.20;99.90;;;;;;5087314;28;22478;-78
2021/04/15 04:22:35;;;;;;;15.50;13.87;;;3.20;99.90;;;;;;5094221;28;20880;-77
2021/04/15 04:25:19;;;;;;;20.53;13.37;;;3.20;99.90;;;;;;5075873;28;20428;-77
2021/04/15 04:28:06;;;;;;;19.83;15.10;;;3.20;99.90;;;;;;5074545;28;20438;-78
2021/04/15 04:30:40;;;;;;;20.80;15.03;;;3.20;99.90;;;;;;5071811;28;20455;-77
2021/04/15 04:33:09;;;;;;;22.07;15.00;;;3.20;99.90;;;;;;5088133;28;20422;-77
2021/04/15 04:35:39;;;;;;;20.40;15.07;;;3.20;99.90;;;;;;5090409;28;20426;-77
2021/04/15 04:38:08;;;;;;;18.20;15.90;;;3.20;99.90;;;;;;5072058;28;20506;-77
2021/04/15 04:40:37;;;;;;;15.90;14.20;;;3.20;99.90;;;;;;5071413;28;20410;-77
2021/04/15 04:43:09;;;;;;;19.20;15.33;;;3.20;99.90;;;;;;5091731;28;20522;-78
2021/04/15 04:45:36;;;;;;;15.53;13.93;;;3.20;99.90;;;;;;5072133;28;20785;-77
2021/04/15 04:48:31;;;;;;;19.63;13.83;;;3.20;99.90;;;;;;5074597;28;20840;-77
2021/04/15 04:51:09;;;;;;;15.80;13.97;;;3.20;99.90;;;;;;5055788;28;20493;-78
2021/04/15 04:53:40;;;;;;;15.90;13.30;;;3.30;99.90;;;;;;5074394;28;20498;-78
2021/04/15 04:56:08;;;;;;;16.93;14.97;;;3.30;99.90;;;;;;5066791;28;20920;-78
2021/04/15 04:58:35;;;;;;;20.83;15.40;;;3.30;99.90;;;;;;5081761;28;20493;-78
2021/04/15 05:01:02;;;;;;;17.17;15.37;;;3.30;99.90;;;;;;5069927;28;20458;-77
2021/04/15 05:03:30;;;;;;;17.70;15.80;;;3.30;99.90;;;;;;5069685;28;20823;-78
2021/04/15 05:06:08;;;;;;;20.47;16.17;;;3.30;99.90;;;;;;5083425;28;20445;-78
2021/04/15 05:08:59;;;;;;;20.30;17.47;;;3.30;99.90;;;;;;5077810;28;20425;-78
2021/04/15 05:11:32;;;;;;;27.73;20.67;;;3.30;99.90;;;;;;5045410;28;20533;-77
2021/04/15 05:13:59;;;;;;;21.83;18.00;;;3.20;99.90;;;;;;5078934;28;20831;-77
2021/04/15 05:16:34;;;;;;;22.90;20.17;;;3.30;99.90;;;;;;5082823;28;20425;-78
2021/04/15 05:19:00;;;;;;;24.70;21.00;;;3.30;99.90;;;;;;5068625;28;20784;-78
2021/04/15 05:21:26;;;;;;;25.07;18.87;;;3.40;99.90;;;;;;5082101;28;20432;-78
2021/04/15 05:24:27;;;;;;;22.73;18.70;;;3.50;99.90;;;;;;5087972;28;20230;-78
2021/04/15 05:26:55;;;;;;;20.70;17.10;;;3.60;99.90;;;;;;5079525;28;20436;-78
2021/04/15 05:29:24;;;;;;;20.67;16.20;;;3.80;99.90;;;;;;5072551;28;20432;-77
2021/04/15 05:31:53;;;;;;;19.53;16.73;;;4.00;99.90;;;;;;5076096;28;20467;-77
2021/04/15 05:34:27;;;;;;;20.63;15.43;;;4.20;99.90;;;;;;5085974;28;20514;-77
2021/04/15 05:36:58;;;;;;;16.33;14.37;;;4.60;99.90;;;;;;5098733;28;20400;-76
2021/04/15 05:39:25;;;;;;;17.63;15.07;;;5.00;99.90;;;;;;5094598;28;20430;-78
2021/04/15 05:41:56;;;;;;;15.13;13.50;;;5.30;99.90;;;;;;5094794;28;20477;-78
2021/04/15 05:44:28;;;;;;;15.57;13.30;;;5.80;99.90;;;;;;5087278;28;20432;-78
2021/04/15 05:46:54;;;;;;;15.70;12.30;;;6.40;99.90;;;;;;5098555;28;20427;-77
2021/04/15 05:49:27;;;;;;;14.80;13.30;;;6.60;99.90;;;;;;5096698;28;20446;-78
2021/04/15 05:52:15;;;;;;;13.47;12.10;;;7.20;99.90;;;;;;5095583;28;20470;-78
2021/04/15 05:54:41;;;;;;;14.03;12.63;;;7.50;99.90;;;;;;5092703;28;20430;-78
2021/04/15 05:57:14;;;;;;;15.50;13.90;;;8.00;99.90;;;;;;5072984;28;20421;-78
2021/04/15 06:00:07;;;;;;;14.97;13.40;;;8.40;99.90;;;;;;5085806;28;20513;-79
2021/04/15 06:02:41;;;;;;;16.50;14.50;;;8.90;99.90;;;;;;5087476;28;20447;-78
2021/04/15 06:05:28;;;;;;;16.90;14.50;;;9.30;99.90;;;;;;5093928;28;20896;-77
2021/04/15 06:07:57;;;;;;;16.50;13.87;;;9.50;99.90;;;;;;5084255;28;20424;-77
2021/04/15 06:10:26;;;;;;;15.53;12.77;;;10.00;99.90;;;;;;5108412;28;20466;-78
2021/04/15 06:13:06;;;;;;;14.37;12.90;;;10.50;99.90;;;;;;5098217;28;20518;-77
2021/04/15 06:15:34;;;;;;;15.73;13.30;;;10.40;99.90;;;;;;5062175;28;20438;-76
2021/04/15 06:18:14;;;;;;;13.47;12.27;;;10.90;99.90;;;;;;5073189;28;20432;-76
2021/04/15 06:20:43;;;;;;;16.13;13.80;;;11.50;99.90;;;;;;5074235;28;20792;-76
2021/04/15 06:23:17;;;;;;;16.50;14.80;;;11.70;99.90;;;;;;5074598;28;20409;-77
2021/04/15 06:25:46;;;;;;;15.33;13.53;;;12.00;99.90;;;;;;5074854;28;20438;-77
2021/04/15 06:28:22;;;;;;;15.57;13.23;;;12.00;99.90;;;;;;5074383;28;20470;-76
2021/04/15 06:31:01;;;;;;;15.03;13.47;;;12.30;99.90;;;;;;5086353;28;20545;-76
2021/04/15 06:33:27;;;;;;;12.73;11.47;;;12.60;99.90;;;;;;5069954;28;20408;-76
2021/04/15 06:35:55;;;;;;;14.87;12.27;;;12.70;99.90;;;;;;5074028;28;20427;-77
2021/04/15 06:38:24;;;;;;;13.80;12.10;;;12.90;99.90;;;;;;5072414;28;20428;-77
2021/04/15 06:41:27;;;;;;;15.80;11.10;;;13.30;99.90;;;;;;5073807;28;20501;-77
2021/04/15 06:44:22;;;;;;;13.53;11.63;;;13.70;99.90;;;;;;5078886;28;20419;-76
2021/04/15 06:47:25;;;;;;;10.50;9.50;;;14.30;99.90;;;;;;5079008;28;20428;-78
2021/04/15 06:50:11;;;;;;;11.60;9.37;;;14.10;99.90;;;;;;5072915;28;20456;-77
2021/04/15 06:52:42;;;;;;;9.07;8.17;;;14.60;99.90;;;;;;5073334;28;20444;-77
2021/04/15 06:55:42;;;;;;;10.50;8.70;;;14.40;99.90;;;;;;5061564;28;20812;-77
2021/04/15 06:58:28;;;;;;;11.97;8.70;;;14.90;99.90;;;;;;5055433;28;20402;-76
2021/04/15 07:01:09;;;;;;;11.47;9.67;;;15.10;99.90;;;;;;5066335;28;20435;-77
2021/04/15 07:03:56;;;;;;;10.57;8.80;;;15.20;99.90;;;;;;5081840;28;20774;-76
2021/04/15 07:06:55;;;;;;;10.70;9.60;;;15.20;99.90;;;;;;5076858;28;20787;-76
2021/04/15 07:09:42;;;;;;;8.90;8.00;;;15.40;98.70;;;;;;5053228;28;20409;-77
2021/04/15 07:12:08;;;;;;;11.30;9.40;;;15.60;96.60;;;;;;5077200;28;20824;-77
2021/04/15 07:14:54;;;;;;;12.40;8.83;;;15.30;95.30;;;;;;5088794;28;20405;-76
2021/04/15 07:17:56;;;;;;;11.43;8.90;;;15.50;97.30;;;;;;5079029;28;20170;-77
2021/04/15 07:21:03;;;;;;;11.33;10.13;;;15.70;94.20;;;;;;5070696;28;20434;-77
2021/04/15 07:24:00;;;;;;;10.00;8.93;;;16.00;93.40;;;;;;5016391;28;20972;-77
2021/04/15 07:26:44;;;;;;;11.40;10.23;;;15.80;93.40;;;;;;5072980;28;20424;-77
2021/04/15 07:29:47;;;;;;;13.37;9.50;;;15.90;93.20;;;;;;5066096;28;20792;-76
2021/04/15 07:32:41;;;;;;;10.43;9.47;;;16.00;91.00;;;;;;5074853;28;20830;-77
2021/04/15 07:35:12;;;;;;;9.77;8.80;;;16.70;91.10;;;;;;5089360;28;20404;-76
2021/04/15 07:38:10;;;;;;;10.13;9.17;;;17.00;90.50;;;;;;5075107;28;20508;-77
2021/04/15 07:41:03;;;;;;;13.30;10.70;;;16.70;86.40;;;;;;5078628;28;20493;-76
2021/04/15 07:44:06;;;;;;;13.87;11.33;;;16.80;83.60;;;;;;5087626;28;20774;-76
2021/04/15 07:46:56;;;;;;;12.30;9.27;;;16.50;80.90;;;;;;5072005;28;20428;-77
2021/04/15 07:50:01;;;;;;;11.57;10.20;;;17.00;83.60;;;;;;5072486;28;20911;-77
2021/04/15 07:53:07;;;;;;;15.67;10.43;;;16.70;79.70;;;;;;5070386;28;20456;-76
2021/04/15 07:55:54;;;;;;;13.63;11.53;;;17.30;80.40;;;;;;5082300;28;20962;-77
2021/04/15 07:58:37;;;;;;;11.63;10.53;;;17.00;75.30;;;;;;5092702;28;20419;-77
2021/04/15 08:01:20;;;;;;;14.07;10.37;;;16.90;78.40;;;;;;5078148;28;20432;-77
2021/04/15 08:04:13;;;;;;;12.80;11.00;;;17.40;75.80;;;;;;5072196;28;20769;-76
2021/04/15 08:06:44;;;;;;;10.97;9.87;;;17.30;80.00;;;;;;5067805;28;20423;-76
2021/04/15 08:09:28;;;;;;;12.83;11.20;;;17.30;88.70;;;;;;5072731;28;20784;-76
2021/04/15 08:12:32;;;;;;;12.23;10.97;;;16.90;83.30;;;;;;5071652;28;20482;-76
2021/04/15 08:15:11;;;;;;;13.27;11.50;;;16.90;88.80;;;;;;5069042;28;20408;-76
2021/04/15 08:18:02;;;;;;;13.67;11.07;;;16.80;79.00;;;;;;5074344;28;20466;-77
2021/04/15 08:21:05;;;;;;;15.00;12.27;;;17.00;81.90;;;;;;5073373;28;20435;-76
2021/04/15 08:24:03;;;;;;;10.70;9.60;;;17.40;79.50;;;;;;5070978;28;20805;-76
2021/04/15 08:27:04;;;;;;;13.20;11.23;;;17.40;79.50;;;;;;5071842;28;20493;-76
2021/04/15 08:30:09;;;;;;;10.90;9.80;;;17.90;73.70;;;;;;5072343;28;20814;-76
2021/04/15 08:33:01;;;;;;;11.07;9.57;;;18.10;76.90;;;;;;5058666;28;20441;-76
2021/04/15 08:35:48;;;;;;;11.37;8.03;;;18.10;68.60;;;;;;5053892;28;20423;-77
2021/04/15 08:38:43;;;;;;;8.97;7.90;;;18.00;70.00;;;;;;5078131;28;20975;-76
2021/04/15 08:41:36;;;;;;;8.00;6.67;;;17.90;65.80;;;;;;5081499;28;20882;-77
2021/04/15 08:44:23;;;;;;;7.73;6.93;;;18.10;68.90;;;;;;5080465;28;20430;-76
2021/04/15 08:47:07;;;;;;;9.73;7.90;;;18.60;66.50;;;;;;5067449;28;20925;-75
2021/04/15 08:50:00;;;;;;;11.50;5.90;;;19.00;66.20;;;;;;5074718;28;20448;-75
2021/04/15 08:52:26;;;;;;;9.80;8.60;;;19.60;63.60;;;;;;5067050;28;20475;-75
2021/04/15 08:55:07;;;;;;;6.77;6.17;;;19.40;59.60;;;;;;5074619;28;20837;-75
2021/04/15 08:57:51;;;;;;;5.93;5.43;;;19.40;59.30;;;;;;5059909;28;20166;-75
2021/04/15 09:00:29;;;;;;;7.93;5.87;;;19.20;58.90;;;;;;5070712;28;20880;-76
2021/04/15 09:03:11;;;;;;;7.80;6.20;;;18.80;58.10;;;;;;5070178;28;20409;-76
2021/04/15 09:05:55;;;;;;;7.57;6.77;;;18.90;58.60;;;;;;5075073;28;20944;-76
2021/04/15 09:08:35;;;;;;;5.70;5.20;;;18.70;56.60;;;;;;5074129;28;20932;-76
2021/04/15 09:11:12;;;;;;;6.07;5.23;;;18.20;57.70;;;;;;5081593;28;20814;-75
2021/04/15 09:13:43;;;;;;;5.83;5.30;;;18.20;58.10;;;;;;5091649;28;20406;-75
2021/04/15 09:16:32;;;;;;;11.20;5.30;;;18.30;56.90;;;;;;5076938;28;20444;-75
2021/04/15 09:19:18;;;;;;;7.37;6.50;;;18.70;60.50;;;;;;5072294;28;20424;-74
2021/04/15 09:22:19;;;;;;;5.23;4.63;;;19.10;59.00;;;;;;5075024;28;20440;-75
2021/04/15 09:25:03;;;;;;;8.13;7.33;;;19.20;57.90;;;;;;5064098;28;20932;-75
2021/04/15 09:27:47;;;;;;;7.20;6.37;;;19.00;58.30;;;;;;5075381;28;20452;-74
2021/04/15 09:30:21;;;;;;;12.30;5.10;;;19.30;57.80;;;;;;5073759;28;20392;-74
2021/04/15 09:33:14;;;;;;;6.83;5.50;;;19.30;56.50;;;;;;5075200;28;20843;-74
2021/04/15 09:36:02;;;;;;;8.30;5.83;;;19.40;56.00;;;;;;5075212;28;20838;-75
2021/04/15 09:39:07;;;;;;;5.40;4.20;;;19.30;57.80;;;;;;5075217;28;20409;-75
2021/04/15 09:41:42;;;;;;;5.40;4.03;;;18.50;54.10;;;;;;5075476;28;20493;-75
2021/04/15 09:44:29;;;;;;;8.60;5.80;;;17.90;54.20;;;;;;5077401;28;20450;-74
2021/04/15 09:47:20;;;;;;;7.80;4.47;;;17.00;54.90;;;;;;5074662;28;20428;-74
2021/04/15 09:50:39;;;;;;;12.53;5.53;;;17.00;57.80;;;;;;5074757;28;20404;-73
2021/04/15 09:53:23;;;;;;;7.20;4.73;;;17.00;57.40;;;;;;4996480;28;20412;-74
2021/04/15 09:55:57;;;;;;;10.57;5.30;;;17.50;57.00;;;;;;5069514;28;20920;-74
2021/04/15 09:58:47;;;;;;;9.67;4.70;;;18.10;56.70;;;;;;5074580;28;20412;-74
2021/04/15 10:01:20;;;;;;;5.23;4.07;;;18.30;55.00;;;;;;5075430;28;20416;-74
2021/04/15 10:03:54;;;;;;;8.13;5.00;;;18.60;54.50;;;;;;5075062;28;20397;-74
2021/04/15 10:06:25;;;;;;;6.30;5.37;;;18.20;54.30;;;;;;5075606;28;20478;-74
2021/04/15 10:08:57;;;;;;;8.10;6.13;;;17.80;52.60;;;;;;5074145;28;20404;-74
2021/04/15 10:11:41;;;;;;;5.07;4.30;;;17.20;53.90;;;;;;5074187;28;20920;-73
2021/04/15 10:14:12;;;;;;;7.00;4.73;;;16.10;54.80;;;;;;5078589;28;20442;-74
2021/04/15 10:17:03;;;;;;;5.60;5.10;;;16.00;56.90;;;;;;5076482;28;20408;-73
2021/04/15 10:19:52;;;;;;;15.83;6.10;;;15.30;57.70;;;;;;5073035;28;20823;-73
2021/04/15 10:22:20;;;;;;;13.53;6.67;;;14.70;62.90;;;;;;5074383;28;20420;-72
2021/04/15 10:24:53;;;;;;;6.00;5.40;;;14.70;66.20;;;;;;5073018;28;20404;-73
2021/04/15 10:27:31;;;;;;;18.00;4.73;;;14.30;64.50;;;;;;5073938;28;20436;-73
2021/04/15 10:30:29;;;;;;;7.57;4.80;;;14.20;68.80;;;;;;5077385;28;20475;-73
2021/04/15 10:33:44;;;;;;;9.33;4.20;;;14.10;68.10;;;;;;5078648;28;20467;-73
2021/04/15 10:36:48;;;;;;;9.83;4.47;;;13.90;74.30;;;;;;5095760;28;20437;-74
2021/04/15 10:39:14;;;;;;;6.73;3.87;;;14.00;70.10;;;;;;5053311;28;20406;-73
2021/04/15 10:42:14;;;;;;;6.90;4.27;;;14.00;74.50;;;;;;5052783;28;20422;-73
2021/04/15 10:45:01;;;;;;;8.00;5.13;;;14.20;81.30;;;;;;5057719;28;20170;-73
2021/04/15 10:47:48;;;;;;;7.07;4.40;;;14.20;65.00;;;;;;5073286;28;20461;-73
2021/04/15 10:50:13;;;;;;;5.23;3.90;;;14.40;68.70;;;;;;5071173;28;20407;-73
2021/04/15 10:52:57;;;;;;;4.00;3.70;;;14.40;67.70;;;;;;5073538;28;20436;-74
2021/04/15 10:55:39;;;;;;;4.47;4.07;;;14.80;66.50;;;;;;5072212;28;20178;-74
2021/04/15 10:58:20;;;;;;;5.83;3.90;;;15.20;65.80;;;;;;5077585;28;20417;-74
2021/04/15 11:00:46;;;;;;;5.00;3.33;;;15.30;63.50;;;;;;5081659;28;20419;-74
2021/04/15 11:03:23;;;;;;;6.40;4.10;;;16.00;62.80;;;;;;5083341;28;20840;-73
2021/04/15 11:05:52;;;;;;;6.70;4.03;;;15.90;59.90;;;;;;5084209;28;20188;-73
2021/04/15 11:08:27;;;;;;;5.83;3.97;;;15.40;59.10;;;;;;5079344;28;20416;-73
2021/04/15 11:11:10;;;;;;;6.80;3.83;;;15.10;57.80;;;;;;5076753;28;20599;-73
2021/04/15 11:13:37;;;;;;;5.50;2.97;;;15.00;60.60;;;;;;5085724;28;20502;-74
2021/04/15 11:16:04;;;;;;;4.97;3.70;;;15.10;61.50;;;;;;5082412;28;21415;-73
2021/04/15 11:18:37;;;;;;;4.50;3.50;;;15.00;58.40;;;;;;5074476;28;20420;-73
2021/04/15 11:21:21;;;;;;;5.90;3.97;;;14.90;60.60;;;;;;5056891;28;20440;-73
2021/04/15 11:23:48;;;;;;;5.27;3.10;;;15.10;62.50;;;;;;5056641;28;20421;-73
2021/04/15 11:26:21;;;;;;;5.87;2.80;;;15.60;67.80;;;;;;5075834;28;20967;-74
2021/04/15 11:28:48;;;;;;;4.67;3.53;;;16.10;65.00;;;;;;5082841;28;20424;-73
2021/04/15 11:31:14;;;;;;;6.00;3.67;;;17.00;62.20;;;;;;5071130;28;20588;-73
2021/04/15 11:33:42;;;;;;;4.10;3.80;;;17.70;58.20;;;;;;5072907;28;20418;-73
2021/04/15 11:36:10;;;;;;;4.83;3.17;;;18.40;57.90;;;;;;5072642;28;20170;-74
2021/04/15 11:38:37;;;;;;;3.63;3.00;;;19.00;56.00;;;;;;5071254;28;20412;-74
2021/04/15 11:41:18;;;;;;;5.30;4.20;;;19.40;54.70;;;;;;5062316;28;20421;-74
2021/04/15 11:43:45;;;;;;;5.20;3.43;;;19.80;51.00;;;;;;5064737;28;20491;-74
2021/04/15 11:46:20;;;;;;;3.80;3.30;;;19.60;49.00;;;;;;5064189;28;20401;-73
2021/04/15 11:49:09;;;;;;;3.40;3.03;;;19.90;49.70;;;;;;5063534;28;20446;-74
2021/04/15 11:51:42;;;;;;;6.73;3.33;;;20.40;50.30;;;;;;5071243;28;20467;-74
2021/04/15 11:54:13;;;;;;;7.10;3.90;;;20.60;49.30;;;;;;5071097;28;20436;-73
2021/04/15 11:56:42;;;;;;;5.70;3.80;;;20.80;47.30;;;;;;5072218;28;20409;-74
2021/04/15 11:59:34;;;;;;;4.67;2.90;;;20.20;46.50;;;;;;5072443;28;20415;-73
2021/04/15 12:02:28;;;;;;;4.50;3.10;;;20.00;48.70;;;;;;5071091;28;20991;-73
2021/04/15 12:05:10;;;;;;;7.40;3.63;;;19.70;47.80;;;;;;5072375;28;20427;-73
2021/04/15 12:07:38;;;;;;;4.60;3.00;;;19.40;46.70;;;;;;5072417;28;20403;-73
2021/04/15 12:10:06;;;;;;;4.93;3.60;;;19.50;48.20;;;;;;5071769;28;20412;-73
2021/04/15 12:12:36;;;;;;;4.00;3.20;;;19.40;47.40;;;;;;5072035;28;20425;-73
2021/04/15 12:15:09;;;;;;;3.93;3.23;;;19.50;45.70;;;;;;5071984;28;20412;-73
2021/04/15 12:17:44;;;;;;;5.87;3.03;;;19.50;46.70;;;;;;5072318;28;20435;-73
2021/04/15 12:20:26;;;;;;;6.40;3.27;;;19.60;46.10;;;;;;5070690;28;20439;-73
2021/04/15 12:23:16;;;;;;;3.07;2.70;;;19.50;47.40;;;;;;5072143;28;20447;-73
2021/04/15 12:26:27;;;;;;;6.10;3.00;;;19.70;47.30;;;;;;5084903;28;20423;-73
2021/04/15 12:29:15;;;;;;;5.63;3.37;;;19.70;46.50;;;;;;5047568;28;20432;-73
2021/04/15 12:32:27;;;;;;;4.27;2.90;;;19.60;46.60;;;;;;5068859;28;20813;-74
2021/04/15 12:35:10;;;;;;;4.03;2.90;;;19.60;44.90;;;;;;5051950;28;20389;-73
2021/04/15 12:37:46;;;;;;;6.80;3.40;;;19.60;43.90;;;;;;5056043;28;20421;-73
2021/04/15 12:40:18;;;;;;;5.50;3.10;;;19.30;43.20;;;;;;5075178;28;20408;-73
2021/04/15 12:42:45;;;;;;;5.30;3.23;;;19.10;43.40;;;;;;5079510;28;20435;-73
2021/04/15 12:45:26;;;;;;;5.77;3.30;;;18.40;43.50;;;;;;5092150;28;20435;-73
2021/04/15 12:47:53;;;;;;;4.50;4.10;;;17.80;45.00;;;;;;5078274;28;20420;-73
2021/04/15 12:50:19;;;;;;;10.40;4.33;;;17.00;46.60;;;;;;5074680;28;20480;-73
2021/04/15 12:52:48;;;;;;;4.40;3.33;;;16.10;47.00;;;;;;5076172;28;20444;-74
2021/04/15 12:55:16;;;;;;;4.50;3.10;;;15.40;47.70;;;;;;5086944;28;20413;-73
2021/04/15 12:57:43;;;;;;;3.73;3.43;;;15.30;48.90;;;;;;5105765;28;20411;-72
2021/04/15 13:00:18;;;;;;;6.27;3.63;;;15.00;49.20;;;;;;5071803;28;20417;-72
2021/04/15 13:02:44;;;;;;;5.47;4.10;;;14.90;49.00;;;;;;5057140;28;20432;-72
2021/04/15 13:05:32;;;;;;;3.20;2.83;;;14.80;50.50;;;;;;5058752;28;20886;-73
2021/04/15 13:08:20;;;;;;;4.07;3.10;;;14.70;49.30;;;;;;5083582;28;20170;-73
2021/04/15 13:10:46;;;;;;;4.10;3.00;;;14.50;47.20;;;;;;5081314;28;20445;-72
2021/04/15 13:13:35;;;;;;;4.20;3.20;;;14.10;47.40;;;;;;5094721;28;20416;-72
2021/04/15 13:16:03;;;;;;;4.43;4.03;;;13.90;48.50;;;;;;5087392;28;20254;-73
2021/04/15 13:18:42;;;;;;;69.50;53.27;;;14.80;52.60;;;;;;5077769;28;20816;-72
2021/04/15 13:21:24;;;;;;;4.40;3.90;;;15.60;51.70;;;;;;5077281;28;20459;-73
2021/04/15 13:23:50;;;;;;;4.30;3.90;;;16.10;51.50;;;;;;5078017;28;20760;-73
2021/04/15 13:26:15;;;;;;;5.57;3.93;;;16.20;50.50;;;;;;5077742;28;20435;-73
2021/04/15 13:28:41;;;;;;;4.90;3.57;;;16.20;49.10;;;;;;5077801;28;20574;-73
2021/04/15 13:31:09;;;;;;;5.17;4.13;;;16.10;47.80;;;;;;5077334;28;20205;-72
2021/04/15 13:33:35;;;;;;;5.57;5.07;;;15.60;47.70;;;;;;5076588;28;20166;-72
2021/04/15 13:36:01;;;;;;;4.80;4.10;;;15.20;47.60;;;;;;5075071;28;20452;-73
2021/04/15 13:38:26;;;;;;;3.73;3.33;;;15.00;47.80;;;;;;5090628;28;20759;-73
2021/04/15 13:40:58;;;;;;;4.00;3.20;;;15.30;47.50;;;;;;5077578;28;20671;-72